Time;durP1;ratioP1;P1;durP2;ratioP2;P2;SDS_P1;SDS_P2;PMS_P1;PMS_P2;Temp;Humidity;BMP_temperature;BMP_pressure;BME280_temperature;BME280_humidity;BME280_pressure;Samples;Min_cycle;Max_cycle;Signal;HPM_P1;HPM_P2
2023/08/02 00:01:55;;;;;;;;;;;;;;;21.51;55.95;100067.75;5033684;28;20028;-62
2023/08/02 00:04:20;;;;;;;;;;;;;;;21.51;56.07;100064.22;5030009;28;19917;-61
2023/08/02 00:06:45;;;;;;;;;;;;;;;21.51;55.86;100064.22;5035038;28;19933;-61
2023/08/02 00:09:11;;;;;;;;;;;;;;;21.50;56.04;100067.97;5036077;28;20515;-61
2023/08/02 00:11:36;;;;;;;;;;;;;;;21.49;56.02;100069.81;5037904;28;19945;-61
2023/08/02 00:14:01;;;;;;;;;;;;;;;21.49;55.77;100058.19;5031466;28;19955;-61
2023/08/02 00:16:27;;;;;;;;;;;;;;;21.50;56.05;100065.28;5033713;28;19924;-60
2023/08/02 00:18:52;;;;;;;;;;;;;;;21.49;55.81;100050.06;5035085;28;19988;-62
2023/08/02 00:21:17;;;;;;;;;;;;;;;21.49;55.91;100052.78;5038279;28;20278;-62
2023/08/02 00:23:42;;;;;;;;;;;;;;;21.48;55.97;100041.13;5033405;28;19924;-61
2023/08/02 00:26:07;;;;;;;;;;;;;;;21.47;55.98;100034.06;5030794;28;19925;-57
2023/08/02 00:28:33;;;;;;;;;;;;;;;21.48;55.89;100032.19;5037442;28;20016;-58
2023/08/02 00:30:58;;;;;;;;;;;;;;;21.47;55.77;100025.94;5030935;28;20097;-62
2023/08/02 00:33:23;;;;;;;;;;;;;;;21.46;55.50;100027.81;5035071;28;20028;-60
2023/08/02 00:35:49;;;;;;;;;;;;;;;21.46;55.79;100035.94;5034052;28;20429;-62
2023/08/02 00:38:14;;;;;;;;;;;;;;;21.46;56.02;100038.63;5030009;28;19926;-62
2023/08/02 00:40:39;;;;;;;;;;;;;;;21.46;55.60;100033.22;5031459;28;19925;-62
2023/08/02 00:43:04;;;;;;;;;;;;;;;21.45;55.57;100028.88;5033799;28;19960;-60
2023/08/02 00:45:30;;;;;;;;;;;;;;;21.45;55.66;100028.88;5038837;28;19987;-60
2023/08/02 00:47:56;;;;;;;;;;;;;;;21.45;55.95;100028.00;5037051;28;19955;-62
2023/08/02 00:50:21;;;;;;;;;;;;;;;21.45;55.75;100031.56;5035687;28;19925;-62
2023/08/02 00:52:47;;;;;;;;;;;;;;;21.44;55.55;100035.28;5031528;28;20294;-62
2023/08/02 00:55:12;;;;;;;;;;;;;;;21.45;55.93;100028.00;5034990;28;20424;-62
2023/08/02 00:57:37;;;;;;;;;;;;;;;21.44;55.72;100012.81;5027305;28;19921;-62
2023/08/02 01:00:03;;;;;;;;;;;;;;;21.43;55.66;100011.16;5033810;28;19921;-61
2023/08/02 01:02:28;;;;;;;;;;;;;;;21.43;55.79;100003.06;5032985;28;19936;-61
2023/08/02 01:04:54;;;;;;;;;;;;;;;21.42;55.69;100002.22;5031999;28;19925;-61
2023/08/02 01:07:28;;;;;;;;;;;;;;;21.42;55.49;100004.09;5034718;28;19921;-51
2023/08/02 01:09:59;;;;;;;;;;;;;;;21.42;55.79;100006.81;5032576;28;19947;-62
2023/08/02 01:12:25;;;;;;;;;;;;;;;21.41;55.55;100005.97;5035198;28;19924;-62
2023/08/02 01:14:51;;;;;;;;;;;;;;;21.42;55.46;100004.09;5033124;28;19921;-61
2023/08/02 01:17:17;;;;;;;;;;;;;;;21.40;55.71;100006.16;5034475;28;20076;-62
2023/08/02 01:19:42;;;;;;;;;;;;;;;21.40;55.73;100009.69;5025947;28;19953;-60
2023/08/02 01:22:07;;;;;;;;;;;;;;;21.41;55.49;100010.56;5037765;28;19928;-62
2023/08/02 01:24:33;;;;;;;;;;;;;;;21.40;55.58;100007.00;5027701;28;19922;-61
2023/08/02 01:27:00;;;;;;;;;;;;;;;21.40;55.53;100006.16;5029060;28;19917;-58
2023/08/02 01:29:25;;;;;;;;;;;;;;;21.40;55.87;100011.56;5053898;28;20346;-62
2023/08/02 01:31:51;;;;;;;;;;;;;;;21.38;55.71;100009.09;5029883;28;19952;-62
2023/08/02 01:34:16;;;;;;;;;;;;;;;21.38;55.44;100003.69;5047924;28;19936;-61
2023/08/02 01:36:42;;;;;;;;;;;;;;;21.38;55.76;100000.16;5032819;28;20000;-62
2023/08/02 01:39:07;;;;;;;;;;;;;;;21.38;55.64;99992.03;5037827;28;19917;-62
2023/08/02 01:41:32;;;;;;;;;;;;;;;21.38;55.83;99989.31;5035187;28;19984;-62
2023/08/02 01:43:57;;;;;;;;;;;;;;;21.37;55.58;99991.19;5033602;28;20523;-62
2023/08/02 01:46:23;;;;;;;;;;;;;;;21.37;55.66;99979.56;5036454;28;20442;-62
2023/08/02 01:48:48;;;;;;;;;;;;;;;21.37;55.59;99988.50;5035062;28;20437;-61
2023/08/02 01:51:13;;;;;;;;;;;;;;;21.37;55.65;99991.19;5036507;28;19921;-61
2023/08/02 01:53:39;;;;;;;;;;;;;;;21.36;55.40;99983.28;5031072;28;19921;-62
2023/08/02 01:56:04;;;;;;;;;;;;;;;21.36;55.44;99985.97;5035489;28;20285;-61
2023/08/02 01:58:30;;;;;;;;;;;;;;;21.36;55.59;99988.69;5032934;28;19921;-61
2023/08/02 02:00:55;;;;;;;;;;;;;;;21.36;55.46;99978.69;5035555;28;19928;-62
2023/08/02 02:03:20;;;;;;;;;;;;;;;21.35;55.65;99968.94;5033977;28;19917;-62
2023/08/02 02:05:53;;;;;;;;;;;;;;;21.36;55.42;99967.06;5031346;28;19924;-61
2023/08/02 02:08:18;;;;;;;;;;;;;;;21.35;55.47;99954.59;5032912;28;20317;-62
2023/08/02 02:10:50;;;;;;;;;;;;;;;21.35;55.38;99943.75;5035847;28;19924;-62
2023/08/02 02:13:16;;;;;;;;;;;;;;;21.34;55.73;99945.63;5034603;28;19917;-62
2023/08/02 02:15:41;;;;;;;;;;;;;;;21.34;55.50;99940.22;5035612;28;19924;-61
2023/08/02 02:18:06;;;;;;;;;;;;;;;21.34;55.62;99931.28;5032979;28;19977;-59
2023/08/02 02:20:32;;;;;;;;;;;;;;;21.35;55.53;99935.66;5035069;28;19998;-62
2023/08/02 02:22:57;;;;;;;;;;;;;;;21.33;55.27;99930.47;5032678;28;19987;-62
2023/08/02 02:25:22;;;;;;;;;;;;;;;21.33;55.55;99925.06;5033735;28;19932;-62
2023/08/02 02:27:47;;;;;;;;;;;;;;;21.32;55.60;99909.03;5036068;28;19917;-61
2023/08/02 02:30:13;;;;;;;;;;;;;;;21.32;55.52;99909.84;5036553;28;19948;-62
2023/08/02 02:32:38;;;;;;;;;;;;;;;21.32;55.36;99898.22;5031042;28;19956;-62
2023/08/02 02:35:03;;;;;;;;;;;;;;;21.31;55.42;99893.81;5034499;28;19917;-61
2023/08/02 02:37:29;;;;;;;;;;;;;;;21.31;55.43;99894.66;5036958;28;19939;-62
2023/08/02 02:39:54;;;;;;;;;;;;;;;21.31;55.44;99889.25;5037622;28;19925;-62
2023/08/02 02:42:19;;;;;;;;;;;;;;;21.30;55.25;99884.88;5035626;28;19917;-61
2023/08/02 02:44:44;;;;;;;;;;;;;;;21.30;55.48;99873.25;5038554;28;19917;-62
2023/08/02 02:47:10;;;;;;;;;;;;;;;21.29;55.58;99869.72;5034668;28;19925;-62
2023/08/02 02:49:35;;;;;;;;;;;;;;;21.29;55.32;99869.72;5036756;28;19949;-62
2023/08/02 02:52:01;;;;;;;;;;;;;;;21.29;55.43;99868.88;5038357;28;19957;-61
2023/08/02 02:54:26;;;;;;;;;;;;;;;21.29;55.45;99867.00;5034553;28;20032;-61
2023/08/02 02:56:51;;;;;;;;;;;;;;;21.28;55.48;99857.25;5033485;28;20155;-62
2023/08/02 02:59:16;;;;;;;;;;;;;;;21.29;55.45;99855.34;5034978;28;19917;-62
2023/08/02 03:01:41;;;;;;;;;;;;;;;21.28;55.32;99848.28;5031262;28;19921;-62
2023/08/02 03:04:07;;;;;;;;;;;;;;;21.28;55.44;99841.00;5035301;28;19917;-61
2023/08/02 03:06:32;;;;;;;;;;;;;;;21.27;55.44;99855.56;5034512;28;20424;-62
2023/08/02 03:08:57;;;;;;;;;;;;;;;21.27;55.40;99854.72;5033249;28;19981;-62
2023/08/02 03:11:23;;;;;;;;;;;;;;;21.26;55.22;99848.50;5036843;28;19984;-52
2023/08/02 03:13:48;;;;;;;;;;;;;;;21.25;55.41;99830.63;5043487;28;19917;-60
2023/08/02 03:16:13;;;;;;;;;;;;;;;21.26;55.12;99839.56;5037145;28;19917;-62
2023/08/02 03:18:38;;;;;;;;;;;;;;;21.25;55.41;99832.50;5038016;28;19921;-62
2023/08/02 03:21:03;;;;;;;;;;;;;;;21.23;55.22;99830.81;5038697;28;19921;-62
2023/08/02 03:23:29;;;;;;;;;;;;;;;21.25;55.36;99829.78;5050714;28;19918;-62
2023/08/02 03:25:54;;;;;;;;;;;;;;;21.26;55.50;99823.31;5033254;28;20332;-58
2023/08/02 03:28:19;;;;;;;;;;;;;;;21.25;55.29;99824.38;5037909;28;19923;-60
2023/08/02 03:30:44;;;;;;;;;;;;;;;21.24;55.40;99812.75;5036844;28;19917;-61
2023/08/02 03:33:09;;;;;;;;;;;;;;;21.22;55.16;99812.94;5033629;28;19960;-62
2023/08/02 03:35:35;;;;;;;;;;;;;;;21.23;55.29;99805.66;5030754;28;19949;-62
2023/08/02 03:38:00;;;;;;;;;;;;;;;21.23;55.49;99800.25;5034872;28;19929;-60
2023/08/02 03:40:25;;;;;;;;;;;;;;;21.22;55.20;99796.72;5034450;28;19948;-62
2023/08/02 03:42:50;;;;;;;;;;;;;;;21.22;55.12;99787.78;5055265;28;19917;-62
2023/08/02 03:45:16;;;;;;;;;;;;;;;21.22;55.43;99782.38;5035954;28;19918;-61
2023/08/02 03:47:41;;;;;;;;;;;;;;;21.22;55.27;99787.78;5033484;28;20367;-62
2023/08/02 03:50:06;;;;;;;;;;;;;;;21.21;55.22;99776.13;5036175;28;19967;-56
2023/08/02 03:52:31;;;;;;;;;;;;;;;21.21;55.23;99778.84;5030348;28;19980;-62
2023/08/02 03:54:57;;;;;;;;;;;;;;;21.20;55.07;99774.47;5032243;28;19924;-62
2023/08/02 03:57:22;;;;;;;;;;;;;;;21.20;55.12;99768.25;5037572;28;19981;-62
2023/08/02 03:59:47;;;;;;;;;;;;;;;21.20;55.19;99760.13;5032239;28;19921;-61
2023/08/02 04:02:12;;;;;;;;;;;;;;;21.19;55.29;99759.28;5033106;28;19956;-62
2023/08/02 04:04:37;;;;;;;;;;;;;;;21.20;55.44;99762.84;5032742;28;19917;-61
2023/08/02 04:07:03;;;;;;;;;;;;;;;21.19;55.12;99761.16;5037394;28;19928;-62
2023/08/02 04:09:28;;;;;;;;;;;;;;;21.18;55.33;99760.31;5034931;28;19921;-62
2023/08/02 04:11:54;;;;;;;;;;;;;;;21.19;55.32;99763.84;5033054;28;19921;-61
2023/08/02 04:14:19;;;;;;;;;;;;;;;21.19;55.17;99755.75;5038514;28;19917;-61
2023/08/02 04:16:44;;;;;;;;;;;;;;;21.18;55.32;99748.69;5037068;28;19917;-62
2023/08/02 04:19:09;;;;;;;;;;;;;;;21.18;55.33;99748.69;5032432;28;19965;-61
2023/08/02 04:21:34;;;;;;;;;;;;;;;21.18;55.07;99732.47;5029219;28;20020;-59
2023/08/02 04:24:00;;;;;;;;;;;;;;;21.17;55.37;99726.25;5034257;28;19921;-61
2023/08/02 04:26:26;;;;;;;;;;;;;;;21.17;55.33;99726.25;5030803;28;19925;-60
2023/08/02 04:28:51;;;;;;;;;;;;;;;21.17;55.19;99726.25;5033740;28;20297;-62
2023/08/02 04:31:16;;;;;;;;;;;;;;;21.16;55.29;99711.06;5033461;28;19921;-52
2023/08/02 04:33:41;;;;;;;;;;;;;;;21.16;55.24;99700.25;5032905;28;19972;-58
2023/08/02 04:36:07;;;;;;;;;;;;;;;21.16;55.32;99702.97;5035818;28;19951;-62
2023/08/02 04:38:32;;;;;;;;;;;;;;;21.15;55.03;99698.59;5038369;28;19917;-59
2023/08/02 04:40:57;;;;;;;;;;;;;;;21.16;55.30;99702.13;5035371;28;19996;-62
2023/08/02 04:43:22;;;;;;;;;;;;;;;21.15;55.02;99690.50;5036913;28;19917;-60
2023/08/02 04:45:48;;;;;;;;;;;;;;;21.15;55.01;99687.78;5029385;28;19918;-59
2023/08/02 04:48:13;;;;;;;;;;;;;;;21.16;55.15;99675.09;5036180;28;20437;-56
2023/08/02 04:50:38;;;;;;;;;;;;;;;21.15;55.26;99665.31;5038307;28;19921;-61
2023/08/02 04:53:03;;;;;;;;;;;;;;;21.15;55.44;99651.78;5032995;28;20051;-62
2023/08/02 04:55:28;;;;;;;;;;;;;;;21.15;55.29;99663.47;5031981;28;19988;-61
2023/08/02 04:57:54;;;;;;;;;;;;;;;21.16;55.65;99654.31;5034757;28;19927;-60
2023/08/02 05:00:19;;;;;;;;;;;;;;;21.16;55.64;99642.66;5035594;28;19965;-61
2023/08/02 05:02:44;;;;;;;;;;;;;;;21.16;55.53;99648.06;5028335;28;19975;-62
2023/08/02 05:05:10;;;;;;;;;;;;;;;21.17;55.83;99644.31;5037816;28;19971;-62
2023/08/02 05:07:37;;;;;;;;;;;;;;;21.18;55.81;99640.56;5032261;28;20004;-61
2023/08/02 05:10:04;;;;;;;;;;;;;;;21.18;56.09;99632.47;5029224;28;20338;-54
2023/08/02 05:12:36;;;;;;;;;;;;;;;21.19;56.13;99634.09;5034997;28;19935;-61
2023/08/02 05:15:02;;;;;;;;;;;;;;;21.18;56.09;99627.88;5034125;28;19917;-62
2023/08/02 05:17:27;;;;;;;;;;;;;;;21.19;56.19;99626.81;5032144;28;19940;-54
2023/08/02 05:19:52;;;;;;;;;;;;;;;21.19;56.25;99602.50;5035020;28;20598;-60
2023/08/02 05:22:18;;;;;;;;;;;;;;;21.20;56.31;99597.94;5031157;28;19917;-60
2023/08/02 05:24:43;;;;;;;;;;;;;;;21.19;56.34;99580.88;5029476;28;20362;-61
2023/08/02 05:27:08;;;;;;;;;;;;;;;21.21;56.03;99588.78;5035024;28;19928;-62
2023/08/02 05:29:33;;;;;;;;;;;;;;;21.20;55.97;99579.03;5036832;28;20405;-62
2023/08/02 05:31:58;;;;;;;;;;;;;;;21.20;56.28;99571.75;5030647;28;19940;-62
2023/08/02 05:34:24;;;;;;;;;;;;;;;21.21;56.45;99573.41;5033151;28;19913;-59
2023/08/02 05:36:49;;;;;;;;;;;;;;;21.21;56.38;99564.47;5041360;28;19913;-61
2023/08/02 05:39:15;;;;;;;;;;;;;;;21.22;56.37;99564.22;5035517;28;19936;-62
2023/08/02 05:41:40;;;;;;;;;;;;;;;21.22;56.43;99575.03;5033820;28;20096;-60
2023/08/02 05:44:05;;;;;;;;;;;;;;;21.22;56.19;99560.69;5032094;28;19917;-61
2023/08/02 05:46:30;;;;;;;;;;;;;;;21.23;56.61;99557.78;5032246;28;19921;-61
2023/08/02 05:48:55;;;;;;;;;;;;;;;21.23;56.40;99546.13;5032255;28;19914;-61
2023/08/02 05:51:22;;;;;;;;;;;;;;;21.25;56.52;99535.13;5029076;28;19921;-60
2023/08/02 05:53:48;;;;;;;;;;;;;;;21.24;56.28;99534.31;5032094;28;19917;-61
2023/08/02 05:56:14;;;;;;;;;;;;;;;21.25;56.31;99532.44;5033101;28;20011;-53
2023/08/02 05:58:39;;;;;;;;;;;;;;;21.25;56.51;99533.25;5032307;28;20023;-60
2023/08/02 06:01:04;;;;;;;;;;;;;;;21.26;56.62;99525.97;5028926;28;19917;-55
2023/08/02 06:03:29;;;;;;;;;;;;;;;21.25;56.38;99527.84;5039460;28;19921;-62
2023/08/02 06:05:54;;;;;;;;;;;;;;;21.26;56.48;99521.38;5041616;28;19956;-60
2023/08/02 06:08:20;;;;;;;;;;;;;;;21.25;56.57;99514.31;5041399;28;19948;-62
2023/08/02 06:10:45;;;;;;;;;;;;;;;21.26;56.46;99507.88;5038224;28;19979;-63
2023/08/02 06:13:10;;;;;;;;;;;;;;;21.26;56.21;99507.88;5036069;28;19932;-60
2023/08/02 06:15:35;;;;;;;;;;;;;;;21.26;56.33;99507.88;5036166;28;19917;-60
2023/08/02 06:18:00;;;;;;;;;;;;;;;21.26;56.49;99502.47;5032623;28;19925;-62
2023/08/02 06:20:26;;;;;;;;;;;;;;;21.27;56.28;99497.88;5039700;28;19925;-62
2023/08/02 06:22:51;;;;;;;;;;;;;;;21.26;56.21;99499.75;5035785;28;19917;-61
2023/08/02 06:25:16;;;;;;;;;;;;;;;21.25;56.19;99487.28;5035213;28;19940;-61
2023/08/02 06:27:41;;;;;;;;;;;;;;;21.26;56.46;99483.53;5038479;28;19918;-62
2023/08/02 06:30:07;;;;;;;;;;;;;;;21.25;56.36;99476.47;5037598;28;20286;-61
2023/08/02 06:32:32;;;;;;;;;;;;;;;21.25;56.45;99462.16;5034454;28;20370;-61
2023/08/02 06:34:57;;;;;;;;;;;;;;;21.25;56.39;99448.63;5033864;28;19940;-62
2023/08/02 06:37:22;;;;;;;;;;;;;;;21.26;56.37;99447.56;5030667;28;19917;-62
2023/08/02 06:39:47;;;;;;;;;;;;;;;21.26;56.16;99442.16;5035671;28;19917;-62
2023/08/02 06:42:13;;;;;;;;;;;;;;;21.26;56.38;99442.16;5034176;28;19917;-61
2023/08/02 06:44:38;;;;;;;;;;;;;;;21.25;56.18;99435.94;5029095;28;19973;-61
2023/08/02 06:47:03;;;;;;;;;;;;;;;21.26;56.31;99434.06;5032465;28;19914;-61
2023/08/02 06:49:28;;;;;;;;;;;;;;;21.25;56.16;99424.31;5032727;28;19918;-61
2023/08/02 06:51:54;;;;;;;;;;;;;;;21.25;56.24;99427.81;5033776;28;20023;-58
2023/08/02 06:54:19;;;;;;;;;;;;;;;21.24;56.54;99418.06;5036915;28;19956;-61
2023/08/02 06:56:44;;;;;;;;;;;;;;;21.25;56.44;99424.31;5035787;28;19917;-58
2023/08/02 06:59:09;;;;;;;;;;;;;;;21.25;56.45;99421.59;5034197;28;19913;-61
2023/08/02 07:01:34;;;;;;;;;;;;;;;21.25;56.38;99424.31;5036228;28;19974;-61
2023/08/02 07:04:00;;;;;;;;;;;;;;;21.25;56.38;99424.31;5039833;28;20015;-61
2023/08/02 07:06:25;;;;;;;;;;;;;;;21.23;56.12;99411.81;5031474;28;19920;-61
2023/08/02 07:08:50;;;;;;;;;;;;;;;21.23;56.31;99413.69;5035513;28;19939;-61
2023/08/02 07:11:15;;;;;;;;;;;;;;;21.22;56.41;99395.81;5037978;28;19917;-61
2023/08/02 07:13:44;;;;;;;;;;;;;;;21.22;56.17;99398.53;5031628;28;19927;-61
2023/08/02 07:16:09;;;;;;;;;;;;;;;21.22;56.40;99388.53;5032717;28;20321;-61
2023/08/02 07:18:34;;;;;;;;;;;;;;;21.23;56.35;99397.47;5032432;28;20378;-62
2023/08/02 07:21:17;;;;;;;;;;;;;;;21.22;56.34;99395.81;5036493;28;19925;-62
2023/08/02 07:23:43;;;;;;;;;;;;;;;21.22;56.30;99385.84;5034777;28;19921;-61
2023/08/02 07:26:09;;;;;;;;;;;;;;;21.22;56.27;99369.63;5041756;28;20386;-61
2023/08/02 07:28:34;;;;;;;;;;;;;;;21.22;56.44;99363.38;5034617;28;19918;-62
2023/08/02 07:31:09;;;;;;;;;;;;;;;21.22;56.40;99363.38;5034709;28;20000;-61
2023/08/02 07:33:34;;;;;;;;;;;;;;;21.22;56.12;99364.22;5033546;28;19939;-60
2023/08/02 07:35:59;;;;;;;;;;;;;;;21.22;56.34;99339.88;5033585;28;19977;-61
2023/08/02 07:38:25;;;;;;;;;;;;;;;21.22;55.94;99322.84;5038433;28;19943;-61
2023/08/02 07:40:50;;;;;;;;;;;;;;;21.22;56.32;99306.63;5033379;28;19969;-61
2023/08/02 07:43:15;;;;;;;;;;;;;;;21.21;55.97;99283.34;5035141;28;19920;-61
2023/08/02 07:45:40;;;;;;;;;;;;;;;21.20;56.08;99277.13;5035281;28;19921;-61
2023/08/02 07:48:06;;;;;;;;;;;;;;;21.21;56.08;99273.38;5034807;28;19917;-61
2023/08/02 07:50:31;;;;;;;;;;;;;;;21.21;55.87;99280.66;5033750;28;20389;-61
2023/08/02 07:52:56;;;;;;;;;;;;;;;21.20;55.88;99270.91;5028080;28;19931;-61
2023/08/02 07:55:21;;;;;;;;;;;;;;;21.21;56.22;99267.13;5050761;28;19949;-60
2023/08/02 07:57:46;;;;;;;;;;;;;;;21.21;55.92;99254.44;5038181;28;19917;-59
2023/08/02 08:00:12;;;;;;;;;;;;;;;21.22;56.13;99255.28;5037957;28;19921;-61
2023/08/02 08:02:37;;;;;;;;;;;;;;;21.21;55.91;99243.63;5037255;28;19963;-62
2023/08/02 08:05:03;;;;;;;;;;;;;;;21.21;56.07;99237.41;5035345;28;19925;-61
2023/08/02 08:07:28;;;;;;;;;;;;;;;21.22;55.80;99230.94;5034736;28;19921;-61
2023/08/02 08:09:53;;;;;;;;;;;;;;;21.21;56.14;99222.00;5035964;28;19917;-61
2023/08/02 08:12:18;;;;;;;;;;;;;;;21.23;55.79;99229.88;5035871;28;19917;-60
2023/08/02 08:14:44;;;;;;;;;;;;;;;21.23;55.79;99217.19;5034194;28;19924;-60
2023/08/02 08:17:09;;;;;;;;;;;;;;;21.23;56.11;99206.38;5036867;28;19924;-62
2023/08/02 08:19:34;;;;;;;;;;;;;;;21.25;55.98;99213.47;5032330;28;19931;-61
2023/08/02 08:21:59;;;;;;;;;;;;;;;21.24;55.80;99207.22;5033646;28;19961;-61
2023/08/02 08:24:25;;;;;;;;;;;;;;;21.25;55.72;99202.66;5035199;28;19924;-61
2023/08/02 08:26:50;;;;;;;;;;;;;;;21.24;55.79;99201.81;5028985;28;19925;-59
2023/08/02 08:29:16;;;;;;;;;;;;;;;21.25;56.13;99194.53;5033270;28;19913;-59
2023/08/02 08:31:41;;;;;;;;;;;;;;;21.23;55.98;99183.94;5030175;28;19928;-61
2023/08/02 08:34:06;;;;;;;;;;;;;;;21.24;55.99;99182.91;5032688;28;19952;-60
2023/08/02 08:36:31;;;;;;;;;;;;;;;21.24;55.80;99177.50;5027318;28;20155;-59
2023/08/02 08:38:57;;;;;;;;;;;;;;;21.23;55.85;99173.94;5034585;28;19924;-59
2023/08/02 08:41:22;;;;;;;;;;;;;;;21.24;55.73;99169.38;5032925;28;19922;-61
2023/08/02 08:43:47;;;;;;;;;;;;;;;21.25;55.92;99165.63;5044801;28;19921;-61
2023/08/02 08:46:13;;;;;;;;;;;;;;;21.25;55.73;99149.41;5029785;28;19923;-55
2023/08/02 08:48:38;;;;;;;;;;;;;;;21.26;56.06;99150.22;5033354;28;19917;-61
2023/08/02 08:51:04;;;;;;;;;;;;;;;21.26;55.63;99139.41;5034230;28;19927;-61
2023/08/02 08:53:32;;;;;;;;;;;;;;;21.26;55.83;99134.84;5036629;28;20381;-61
2023/08/02 08:55:58;;;;;;;;;;;;;;;21.27;55.89;99130.25;5031994;28;19917;-61
2023/08/02 08:58:23;;;;;;;;;;;;;;;21.26;55.70;99131.31;5036182;28;20036;-60
2023/08/02 09:00:49;;;;;;;;;;;;;;;21.27;55.69;99116.75;5035871;28;19952;-61
2023/08/02 09:03:14;;;;;;;;;;;;;;;21.28;55.72;99118.38;5034162;28;19963;-60
2023/08/02 09:05:42;;;;;;;;;;;;;;;21.27;56.05;99104.03;5034307;28;19948;-61
2023/08/02 09:08:08;;;;;;;;;;;;;;;21.27;55.71;99112.16;5049999;28;20049;-61
2023/08/02 09:10:33;;;;;;;;;;;;;;;21.28;55.64;99096.75;5033538;28;19921;-61
2023/08/02 09:12:58;;;;;;;;;;;;;;;21.28;55.92;99094.06;5032793;28;19922;-60
2023/08/02 09:15:23;;;;;;;;;;;;;;;21.28;55.85;99094.91;5030097;28;20527;-60
2023/08/02 09:17:50;;;;;;;;;;;;;;;21.29;55.75;99095.72;5032017;28;19928;-60
2023/08/02 09:20:15;;;;;;;;;;;;;;;21.30;55.77;99091.97;5036916;28;19947;-58
2023/08/02 09:22:41;;;;;;;;;;;;;;;21.30;55.99;99081.97;5032816;28;19928;-58
2023/08/02 09:25:11;;;;;;;;;;;;;;;21.31;55.92;99094.44;5032824;28;19918;-62
2023/08/02 09:27:37;;;;;;;;;;;;;;;21.31;55.99;99097.13;5029456;28;20634;-61
2023/08/02 09:30:02;;;;;;;;;;;;;;;21.31;55.82;99091.72;5033594;28;19984;-61
2023/08/02 09:32:27;;;;;;;;;;;;;;;21.31;55.75;99080.09;5031339;28;19918;-61
2023/08/02 09:34:54;;;;;;;;;;;;;;;21.31;55.73;99083.63;5031985;28;19927;-54
2023/08/02 09:37:32;;;;;;;;;;;;;;;21.32;55.74;99084.47;5033300;28;19940;-61
2023/08/02 09:39:58;;;;;;;;;;;;;;;21.31;55.93;99078.22;5030488;28;19922;-61
2023/08/02 09:42:25;;;;;;;;;;;;;;;21.31;55.94;99070.09;5032195;28;20008;-61
2023/08/02 09:44:54;;;;;;;;;;;;;;;21.33;55.82;99072.63;5038138;28;19983;-60
2023/08/02 09:47:20;;;;;;;;;;;;;;;21.32;55.88;99065.53;5036683;28;19928;-60
2023/08/02 09:49:45;;;;;;;;;;;;;;;21.32;55.73;99054.72;5035734;28;19920;-60
2023/08/02 09:52:11;;;;;;;;;;;;;;;21.33;55.68;99051.81;5038865;28;19940;-61
2023/08/02 09:54:36;;;;;;;;;;;;;;;21.34;55.84;99049.94;5032823;28;19917;-61
2023/08/02 09:57:01;;;;;;;;;;;;;;;21.34;55.72;99052.63;5033504;28;19917;-58
2023/08/02 09:59:28;;;;;;;;;;;;;;;21.34;55.52;99056.16;5036093;28;20001;-61
2023/08/02 10:01:53;;;;;;;;;;;;;;;21.35;55.68;99043.47;5036561;28;19925;-62
2023/08/02 10:04:18;;;;;;;;;;;;;;;21.34;55.44;99045.34;5050937;28;19944;-60
2023/08/02 10:06:45;;;;;;;;;;;;;;;21.35;55.81;99038.88;5052995;28;19921;-62
2023/08/02 10:09:11;;;;;;;;;;;;;;;21.35;55.83;99035.34;5036832;28;19922;-61
2023/08/02 10:11:43;;;;;;;;;;;;;;;21.37;55.57;99033.28;5039390;28;19917;-61
2023/08/02 10:14:09;;;;;;;;;;;;;;;21.36;55.54;99040.53;5034764;28;19968;-61
2023/08/02 10:16:34;;;;;;;;;;;;;;;21.37;55.71;99033.28;5041235;28;20415;-61
2023/08/02 10:19:01;;;;;;;;;;;;;;;21.38;55.79;99032.22;5056618;28;19924;-61
2023/08/02 10:21:26;;;;;;;;;;;;;;;21.39;55.57;99014.91;5033147;28;19931;-62
2023/08/02 10:23:51;;;;;;;;;;;;;;;21.39;55.52;99025.72;5041058;28;19968;-61
2023/08/02 10:26:16;;;;;;;;;;;;;;;21.40;55.68;99021.97;5037984;28;19928;-59
2023/08/02 10:28:42;;;;;;;;;;;;;;;21.39;55.81;99018.44;5036657;28;19921;-60
2023/08/02 10:31:08;;;;;;;;;;;;;;;21.41;55.79;99018.22;5036178;28;19928;-61
2023/08/02 10:33:34;;;;;;;;;;;;;;;21.41;55.43;99015.53;5040719;28;19917;-58
2023/08/02 10:35:59;;;;;;;;;;;;;;;21.41;55.91;99010.94;5032533;28;19917;-60
2023/08/02 10:38:25;;;;;;;;;;;;;;;21.40;55.55;99011.97;5040468;28;19917;-61
2023/08/02 10:41:03;;;;;;;;;;;;;;;21.41;55.88;99002.00;5030261;28;19983;-62
2023/08/02 10:43:28;;;;;;;;;;;;;;;21.42;55.68;99003.66;5040183;28;19928;-62
2023/08/02 10:46:12;;;;;;;;;;;;;;;21.42;55.82;98995.53;5036233;28;19917;-62
2023/08/02 10:48:37;;;;;;;;;;;;;;;21.42;55.73;98990.97;5035736;28;19932;-57
2023/08/02 10:51:03;;;;;;;;;;;;;;;21.43;55.91;98984.50;5040092;28;20008;-62
2023/08/02 10:53:28;;;;;;;;;;;;;;;21.44;56.04;98974.50;5042417;28;19972;-60
2023/08/02 10:56:12;;;;;;;;;;;;;;;21.44;56.19;98974.50;5039063;28;19924;-62
2023/08/02 10:58:50;;;;;;;;;;;;;;;21.44;56.15;98967.19;5037659;28;19917;-61
2023/08/02 11:01:15;;;;;;;;;;;;;;;21.46;56.11;98961.59;5036032;28;19983;-59
2023/08/02 11:03:41;;;;;;;;;;;;;;;21.46;56.35;98969.69;5037865;28;21046;-60
2023/08/02 11:06:06;;;;;;;;;;;;;;;21.47;56.13;98957.81;5037709;28;20027;-62
2023/08/02 11:08:45;;;;;;;;;;;;;;;21.47;56.42;98944.28;5034225;28;19940;-61
2023/08/02 11:11:10;;;;;;;;;;;;;;;21.48;56.41;98950.53;5035531;28;19925;-61
2023/08/02 11:13:39;;;;;;;;;;;;;;;21.50;56.58;98943.84;5038727;28;19917;-60
2023/08/02 11:16:05;;;;;;;;;;;;;;;21.49;56.46;98936.75;5034518;28;19921;-61
2023/08/02 11:18:31;;;;;;;;;;;;;;;21.51;56.56;98931.13;5037290;28;19932;-60
2023/08/02 11:21:05;;;;;;;;;;;;;;;21.53;56.56;98937.13;5035014;28;19922;-60
2023/08/02 11:23:32;;;;;;;;;;;;;;;21.53;56.43;98929.00;5039417;28;19964;-60
2023/08/02 11:26:11;;;;;;;;;;;;;;;21.54;56.57;98942.31;5035983;28;20001;-59
2023/08/02 11:28:52;;;;;;;;;;;;;;;21.57;56.63;98939.13;5029542;28;20012;-59
2023/08/02 11:31:17;;;;;;;;;;;;;;;21.58;56.65;98931.84;5034541;28;19921;-60
2023/08/02 11:33:43;;;;;;;;;;;;;;;21.59;56.82;98925.38;5034252;28;19928;-60
2023/08/02 11:36:08;;;;;;;;;;;;;;;21.62;56.69;98914.06;5027980;28;19928;-60
2023/08/02 11:38:35;;;;;;;;;;;;;;;21.62;56.90;98897.84;5037155;28;19921;-60
2023/08/02 11:41:00;;;;;;;;;;;;;;;21.62;56.88;98885.19;5036528;28;19947;-59
2023/08/02 11:43:35;;;;;;;;;;;;;;;21.63;56.86;98897.63;5041146;28;19921;-60
2023/08/02 11:46:11;;;;;;;;;;;;;;;21.63;57.06;98888.72;5035314;28;19929;-61
2023/08/02 11:48:36;;;;;;;;;;;;;;;21.64;57.21;98879.53;5032847;28;20028;-60
2023/08/02 11:51:01;;;;;;;;;;;;;;;21.65;57.04;98883.88;5034531;28;19944;-61
2023/08/02 11:53:26;;;;;;;;;;;;;;;21.63;57.11;98876.00;5047586;28;19929;-61
2023/08/02 11:55:51;;;;;;;;;;;;;;;21.63;57.06;98867.06;5033668;28;19921;-61
2023/08/02 11:58:17;;;;;;;;;;;;;;;21.63;57.33;98861.66;5033674;28;19945;-60
2023/08/02 12:00:42;;;;;;;;;;;;;;;21.62;57.13;98862.69;5031754;28;19922;-60
2023/08/02 12:03:11;;;;;;;;;;;;;;;21.61;57.15;98853.75;5030396;28;19927;-60
2023/08/02 12:05:37;;;;;;;;;;;;;;;21.62;57.05;98862.69;5031337;28;19943;-61
2023/08/02 12:08:12;;;;;;;;;;;;;;;21.60;57.22;98878.34;5035867;28;19917;-60
2023/08/02 12:10:38;;;;;;;;;;;;;;;21.60;57.53;98886.47;5037780;28;19924;-61
2023/08/02 12:13:10;;;;;;;;;;;;;;;21.60;57.29;98883.75;5038031;28;20460;-60
2023/08/02 12:15:36;;;;;;;;;;;;;;;21.60;57.68;98862.13;5028601;28;19925;-61
2023/08/02 12:18:03;;;;;;;;;;;;;;;21.59;57.32;98847.78;5035005;28;19917;-60
2023/08/02 12:20:38;;;;;;;;;;;;;;;21.61;57.21;98852.94;5114695;27;19959;-61
2023/08/02 12:23:04;;;;;;;;;;;;;;;21.61;57.61;98829.44;5106273;28;19924;-60
2023/08/02 12:25:43;;;;;;;;;;;;;;;21.62;57.50;98831.09;5101228;28;19931;-60
2023/08/02 12:28:08;;;;;;;;;;;;;;;21.63;57.51;98821.91;5092502;28;19920;-60
2023/08/02 12:30:34;;;;;;;;;;;;;;;21.63;57.45;98826.50;5091230;28;19959;-61
2023/08/02 12:32:59;;;;;;;;;;;;;;;21.65;57.58;98810.84;5088162;28;20347;-61
2023/08/02 12:35:24;;;;;;;;;;;;;;;21.66;57.43;98836.81;5092177;28;19916;-63
2023/08/02 12:37:52;;;;;;;;;;;;;;;21.67;57.31;98841.19;5091611;28;19974;-61
2023/08/02 12:40:18;;;;;;;;;;;;;;;21.69;57.53;98839.06;5091750;28;19920;-61